createdAt,value
2017-12-15T00:01:47.389Z,2.40
2017-12-15T00:04:15.044Z,2.40
2017-12-15T00:06:42.702Z,2.40
2017-12-15T00:09:10.369Z,2.40
2017-12-15T00:11:38.003Z,2.40
2017-12-15T00:14:05.716Z,2.40
2017-12-15T00:16:33.357Z,2.40
2017-12-15T00:19:01.024Z,2.40
2017-12-15T00:21:28.644Z,2.40
2017-12-15T00:23:56.335Z,2.40
2017-12-15T00:26:23.955Z,2.40
2017-12-15T00:28:51.623Z,2.40
2017-12-15T00:31:19.288Z,2.40
2017-12-15T00:33:47.278Z,2.40
2017-12-15T00:36:14.918Z,2.40
2017-12-15T00:38:42.602Z,2.40
2017-12-15T00:41:10.220Z,2.40
2017-12-15T00:43:37.841Z,2.30
2017-12-15T00:46:05.505Z,2.30
2017-12-15T00:48:33.146Z,2.30
2017-12-15T00:51:00.816Z,2.30
2017-12-15T00:53:28.447Z,2.30
2017-12-15T00:55:56.198Z,2.20
2017-12-15T00:58:23.866Z,2.20
2017-12-15T01:00:51.566Z,2.20
2017-12-15T01:03:19.212Z,2.20
2017-12-15T01:05:46.874Z,2.10
2017-12-15T01:08:14.544Z,2.00
2017-12-15T01:10:42.165Z,2.00
2017-12-15T01:13:09.879Z,1.90
2017-12-15T01:15:38.323Z,1.80
2017-12-15T01:18:05.980Z,1.80
2017-12-15T01:20:33.611Z,1.80
2017-12-15T01:23:01.305Z,1.80
2017-12-15T01:25:28.999Z,1.80
2017-12-15T01:27:56.619Z,1.80
2017-12-15T01:30:24.236Z,1.70
2017-12-15T01:32:51.892Z,1.70
2017-12-15T01:35:19.527Z,1.80
2017-12-15T01:37:47.211Z,1.70
2017-12-15T01:40:15.615Z,1.80
2017-12-15T01:42:43.352Z,1.70
2017-12-15T01:45:10.981Z,1.80
2017-12-15T01:47:38.610Z,1.80
2017-12-15T01:50:06.265Z,1.80
2017-12-15T01:52:33.876Z,1.80
2017-12-15T01:55:02.350Z,1.80
2017-12-15T01:57:30.787Z,1.80
2017-12-15T01:59:58.500Z,1.80
2017-12-15T02:02:26.151Z,1.80
2017-12-15T02:04:54.571Z,1.90
2017-12-15T02:07:22.226Z,1.90
2017-12-15T02:09:49.852Z,1.90
2017-12-15T02:12:18.323Z,1.90
2017-12-15T02:14:46.039Z,1.90
2017-12-15T02:17:13.715Z,1.90
2017-12-15T02:19:41.383Z,1.90
2017-12-15T02:22:09.011Z,1.80
2017-12-15T02:24:36.656Z,1.80
2017-12-15T02:27:04.370Z,1.80
2017-12-15T02:29:32.023Z,1.80
2017-12-15T02:31:59.630Z,1.80
2017-12-15T02:34:27.281Z,1.90
2017-12-15T02:36:55.712Z,1.90
2017-12-15T02:39:23.338Z,1.90
2017-12-15T02:41:51.007Z,2.00
2017-12-15T02:44:18.609Z,2.00
2017-12-15T02:46:46.432Z,2.00
2017-12-15T02:49:14.074Z,2.00
2017-12-15T02:51:41.707Z,2.10
2017-12-15T02:54:09.399Z,2.10
2017-12-15T02:56:37.011Z,2.20
2017-12-15T02:59:04.657Z,2.20
2017-12-15T03:01:32.345Z,2.20
2017-12-15T03:04:00.042Z,2.20
2017-12-15T03:06:27.712Z,2.20
2017-12-15T03:08:55.368Z,2.20
2017-12-15T03:11:23.012Z,2.20
2017-12-15T03:13:50.715Z,2.20
2017-12-15T03:16:18.343Z,2.10
2017-12-15T03:18:45.970Z,2.20
2017-12-15T03:21:14.418Z,2.20
2017-12-15T03:23:42.043Z,2.10
2017-12-15T03:26:09.695Z,2.20
2017-12-15T03:28:37.380Z,2.20
2017-12-15T03:31:05.011Z,2.20
2017-12-15T03:33:32.680Z,2.20
2017-12-15T03:36:00.311Z,2.10
2017-12-15T03:38:28.731Z,2.30
2017-12-15T03:40:56.373Z,2.20
2017-12-15T03:43:24.010Z,2.30
2017-12-15T03:45:52.430Z,2.40
2017-12-15T03:48:20.075Z,2.40
2017-12-15T03:50:47.686Z,2.40
2017-12-15T03:53:15.368Z,2.40
2017-12-15T03:55:43.778Z,2.50
2017-12-15T03:58:11.623Z,2.50
2017-12-15T04:00:40.039Z,2.60
2017-12-15T04:03:07.721Z,2.60
2017-12-15T04:05:35.372Z,2.60
2017-12-15T04:08:02.988Z,2.70
2017-12-15T04:10:30.736Z,2.60
2017-12-15T04:12:59.116Z,2.70
2017-12-15T04:15:27.549Z,2.80
2017-12-15T04:17:55.247Z,2.80
2017-12-15T04:20:23.708Z,2.60
2017-12-15T04:22:51.341Z,2.60
2017-12-15T04:25:19.034Z,2.60
2017-12-15T04:27:46.670Z,2.60
2017-12-15T04:30:14.358Z,2.60
2017-12-15T04:32:41.987Z,2.60
2017-12-15T04:35:09.614Z,2.60
2017-12-15T04:37:37.299Z,2.50
2017-12-15T04:40:04.962Z,2.50
2017-12-15T04:42:32.604Z,2.60
2017-12-15T04:45:00.309Z,2.50
2017-12-15T04:47:27.971Z,2.50
2017-12-15T04:49:55.660Z,2.50
2017-12-15T04:52:24.059Z,2.60
2017-12-15T04:54:51.690Z,2.50
2017-12-15T04:57:20.173Z,2.50
2017-12-15T04:59:48.566Z,2.50
2017-12-15T05:02:16.254Z,2.50
2017-12-15T05:04:43.946Z,2.60
2017-12-15T05:07:11.583Z,2.60
2017-12-15T05:09:39.262Z,2.60
2017-12-15T05:12:06.911Z,2.50
2017-12-15T05:14:34.622Z,2.50
2017-12-15T05:17:02.284Z,2.50
2017-12-15T05:19:29.923Z,2.50
2017-12-15T05:21:58.386Z,2.50
2017-12-15T05:24:26.020Z,2.50
2017-12-15T05:26:53.686Z,2.50
2017-12-15T05:29:21.392Z,2.50
2017-12-15T05:31:49.033Z,2.50
2017-12-15T05:34:16.651Z,2.40
2017-12-15T05:36:44.339Z,2.50
2017-12-15T05:39:11.976Z,2.50
2017-12-15T05:41:39.663Z,2.40
2017-12-15T05:44:07.297Z,2.40
2017-12-15T05:46:34.931Z,2.40
2017-12-15T05:49:02.591Z,2.40
2017-12-15T05:51:30.208Z,2.50
2017-12-15T05:53:58.671Z,2.60
2017-12-15T05:56:26.276Z,2.60
2017-12-15T05:58:54.651Z,2.60
2017-12-15T06:01:23.874Z,2.70
2017-12-15T06:03:51.600Z,2.70
2017-12-15T06:06:20.124Z,2.70
2017-12-15T06:08:47.747Z,2.70
2017-12-15T06:11:15.375Z,2.70
2017-12-15T06:13:43.239Z,2.70
2017-12-15T06:16:10.862Z,2.70
2017-12-15T06:18:38.512Z,2.70
2017-12-15T06:21:06.168Z,2.70
2017-12-15T06:23:33.775Z,2.70
2017-12-15T06:26:01.411Z,2.70
2017-12-15T06:28:29.019Z,2.70
2017-12-15T06:30:57.524Z,2.80
2017-12-15T06:33:25.271Z,2.80
2017-12-15T06:35:52.932Z,2.70
2017-12-15T06:38:21.337Z,2.70
2017-12-15T06:40:49.083Z,2.70
2017-12-15T06:43:16.717Z,2.70
2017-12-15T06:45:45.286Z,2.70
2017-12-15T06:48:13.011Z,2.70
2017-12-15T06:50:40.646Z,2.70
2017-12-15T06:53:08.302Z,2.60
2017-12-15T06:55:35.959Z,2.60
2017-12-15T06:58:03.615Z,2.50
2017-12-15T07:00:31.268Z,2.50
2017-12-15T07:02:59.665Z,2.50
2017-12-15T07:05:27.299Z,2.50
2017-12-15T07:07:55.675Z,2.40
2017-12-15T07:10:25.280Z,2.50
2017-12-15T07:12:53.724Z,2.50
2017-12-15T07:15:21.398Z,2.50
2017-12-15T07:17:49.054Z,2.40
2017-12-15T07:20:16.676Z,2.40
2017-12-15T07:22:44.471Z,2.40
2017-12-15T07:25:12.086Z,2.40
2017-12-15T07:27:39.792Z,2.40
2017-12-15T07:30:07.433Z,2.40
2017-12-15T07:32:35.078Z,2.50
2017-12-15T07:35:02.742Z,2.60
2017-12-15T07:37:30.388Z,2.60
2017-12-15T07:39:58.114Z,2.60
2017-12-15T07:42:26.015Z,2.70
2017-12-15T07:44:53.802Z,2.70
2017-12-15T07:47:21.424Z,2.70
2017-12-15T07:49:49.878Z,2.60
2017-12-15T07:52:17.529Z,2.60
2017-12-15T07:54:45.255Z,2.60
2017-12-15T07:57:13.109Z,2.50
2017-12-15T07:59:40.820Z,2.50
2017-12-15T08:02:08.567Z,2.50
2017-12-15T08:04:36.259Z,2.50
2017-12-15T08:07:04.788Z,2.60
2017-12-15T08:09:32.471Z,2.50
2017-12-15T08:12:00.111Z,2.50
2017-12-15T08:14:27.784Z,2.40
2017-12-15T08:16:55.402Z,2.40
2017-12-15T08:19:23.040Z,2.40
2017-12-15T08:21:51.512Z,2.50
2017-12-15T08:24:19.164Z,2.40
2017-12-15T08:26:46.788Z,2.50
2017-12-15T08:29:14.453Z,2.50
2017-12-15T08:31:42.060Z,2.50
2017-12-15T08:34:10.514Z,2.50
2017-12-15T08:36:38.175Z,2.50
2017-12-15T08:39:05.840Z,2.50
2017-12-15T08:41:33.508Z,2.60
2017-12-15T08:44:02.420Z,2.50
2017-12-15T08:46:30.135Z,2.60
2017-12-15T08:48:57.856Z,2.60
2017-12-15T08:51:25.603Z,2.60
2017-12-15T08:53:53.267Z,2.60
2017-12-15T08:56:21.758Z,2.70
2017-12-15T08:58:50.204Z,2.70
2017-12-15T09:01:17.909Z,2.70
2017-12-15T09:03:45.708Z,2.80
2017-12-15T09:06:13.377Z,2.90
2017-12-15T09:08:41.109Z,3.00
2017-12-15T09:11:08.903Z,3.10
2017-12-15T09:13:36.590Z,3.20
2017-12-15T09:16:04.303Z,3.30
2017-12-15T09:18:32.023Z,3.30
2017-12-15T09:20:59.684Z,3.30
2017-12-15T09:23:28.143Z,3.40
2017-12-15T09:25:56.594Z,3.40
2017-12-15T09:28:24.247Z,3.40
2017-12-15T09:30:51.933Z,3.50
2017-12-15T09:33:19.605Z,3.80
2017-12-15T09:35:48.042Z,4.00
2017-12-15T09:38:15.912Z,4.00
2017-12-15T09:40:43.633Z,4.00
2017-12-15T09:43:11.255Z,4.00
2017-12-15T09:45:38.891Z,4.00
2017-12-15T09:48:06.526Z,3.90
2017-12-15T09:50:34.179Z,4.00
2017-12-15T09:53:01.788Z,3.90
2017-12-15T09:55:29.412Z,3.90
2017-12-15T09:57:57.055Z,3.90
2017-12-15T10:00:24.746Z,4.00
2017-12-15T10:02:52.383Z,4.00
2017-12-15T10:05:20.007Z,4.00
2017-12-15T10:07:48.475Z,4.10
2017-12-15T10:10:16.082Z,4.10
2017-12-15T10:12:43.714Z,4.20
2017-12-15T10:15:12.100Z,4.30
2017-12-15T10:17:39.835Z,4.30
2017-12-15T10:20:08.224Z,4.30
2017-12-15T10:22:36.651Z,4.30
2017-12-15T10:25:04.268Z,4.30
2017-12-15T10:27:32.720Z,4.30
2017-12-15T10:30:00.588Z,4.30
2017-12-15T10:32:29.063Z,4.50
2017-12-15T10:34:56.820Z,4.50
2017-12-15T10:37:24.495Z,4.50
2017-12-15T10:39:52.165Z,4.50
2017-12-15T10:42:20.651Z,4.50
2017-12-15T10:44:49.059Z,4.60
2017-12-15T10:47:16.698Z,4.50
2017-12-15T10:49:46.815Z,4.90
2017-12-15T10:52:14.621Z,4.80
2017-12-15T10:54:43.171Z,4.90
2017-12-15T10:57:10.853Z,4.90
2017-12-15T10:59:38.496Z,4.90
2017-12-15T11:02:06.757Z,4.80
2017-12-15T11:04:35.168Z,4.70
2017-12-15T11:07:03.728Z,4.70
2017-12-15T11:09:31.399Z,4.70
2017-12-15T11:11:59.049Z,4.80
2017-12-15T11:14:26.720Z,4.90
2017-12-15T11:16:54.397Z,5.00
2017-12-15T11:19:22.101Z,5.10
2017-12-15T11:21:50.588Z,5.10
2017-12-15T11:24:19.240Z,5.00
2017-12-15T11:26:46.924Z,5.00
2017-12-15T11:29:15.358Z,5.10
2017-12-15T11:31:43.130Z,5.10
2017-12-15T11:34:10.890Z,5.10
2017-12-15T11:36:38.628Z,5.20
2017-12-15T11:39:06.456Z,5.20
2017-12-15T11:41:34.938Z,5.30
2017-12-15T11:44:03.424Z,5.30
2017-12-15T11:46:31.135Z,5.20
2017-12-15T11:48:58.795Z,5.20
2017-12-15T11:51:26.456Z,5.20
2017-12-15T11:53:54.116Z,5.20
2017-12-15T11:56:21.783Z,5.20
2017-12-15T11:58:49.416Z,5.20
2017-12-15T12:01:17.116Z,5.30
2017-12-15T12:03:44.796Z,5.50
2017-12-15T12:06:13.328Z,5.50
2017-12-15T12:08:40.962Z,5.50
2017-12-15T12:11:08.638Z,5.60
2017-12-15T12:13:36.352Z,5.60
2017-12-15T12:16:04.780Z,5.50
2017-12-15T12:18:32.506Z,5.50
2017-12-15T12:21:00.956Z,5.70
2017-12-15T12:23:28.599Z,5.70
2017-12-15T12:25:56.268Z,5.80
2017-12-15T12:28:23.935Z,5.80
2017-12-15T12:30:51.723Z,5.80
2017-12-15T12:33:20.197Z,5.70
2017-12-15T12:35:48.692Z,5.70
2017-12-15T12:38:16.354Z,5.70
2017-12-15T12:40:44.720Z,5.80
2017-12-15T12:43:13.215Z,5.90
2017-12-15T12:45:40.826Z,5.90
2017-12-15T12:48:08.488Z,6.00
2017-12-15T12:50:36.135Z,6.00
2017-12-15T12:53:03.781Z,5.90
2017-12-15T12:55:31.407Z,5.80
2017-12-15T12:58:00.088Z,5.70
2017-12-15T13:00:27.847Z,5.70
2017-12-15T13:02:55.506Z,5.70
2017-12-15T13:05:23.971Z,5.50
2017-12-15T13:07:51.642Z,5.50
2017-12-15T13:10:20.067Z,5.50
2017-12-15T13:12:47.858Z,5.50
2017-12-15T13:15:15.490Z,5.50
2017-12-15T13:17:43.132Z,5.50
2017-12-15T13:20:10.891Z,5.50
2017-12-15T13:22:38.592Z,5.50
2017-12-15T13:25:06.294Z,5.50
2017-12-15T13:27:34.698Z,5.50
2017-12-15T13:30:02.377Z,5.50
2017-12-15T13:32:33.744Z,5.50
2017-12-15T13:35:01.411Z,5.50
2017-12-15T13:37:29.051Z,5.50
2017-12-15T13:39:56.710Z,5.50
2017-12-15T13:42:24.365Z,5.50
2017-12-15T13:44:52.153Z,5.60
2017-12-15T13:47:19.800Z,5.50
2017-12-15T13:49:47.444Z,5.60
2017-12-15T13:52:15.105Z,5.50
2017-12-15T13:54:42.714Z,5.50
2017-12-15T13:57:11.123Z,5.30
2017-12-15T13:59:38.734Z,5.30
2017-12-15T14:02:06.428Z,5.30
2017-12-15T14:04:34.059Z,5.30
2017-12-15T14:07:01.716Z,5.20
2017-12-15T14:09:29.356Z,5.20
2017-12-15T14:11:57.010Z,5.10
2017-12-15T14:14:24.616Z,5.20
2017-12-15T14:16:53.084Z,5.10
2017-12-15T14:19:21.447Z,5.10
2017-12-15T14:21:49.102Z,5.10
2017-12-15T14:24:16.762Z,5.10
2017-12-15T14:26:44.423Z,5.10
2017-12-15T14:29:12.106Z,5.10
2017-12-15T14:31:40.559Z,5.10
2017-12-15T14:34:08.235Z,5.10
2017-12-15T14:36:36.643Z,5.00
2017-12-15T14:39:04.327Z,5.00
2017-12-15T14:41:31.984Z,4.90
2017-12-15T14:44:00.405Z,4.90
2017-12-15T14:46:28.132Z,4.90
2017-12-15T14:48:55.820Z,4.80
2017-12-15T14:51:23.456Z,4.70
2017-12-15T14:53:51.122Z,4.70
2017-12-15T14:56:18.800Z,4.60
2017-12-15T14:58:46.574Z,4.50
2017-12-15T15:01:14.301Z,4.40
2017-12-15T15:03:41.974Z,4.40
2017-12-15T15:06:09.712Z,4.30
2017-12-15T15:08:37.354Z,4.20
2017-12-15T15:11:04.990Z,4.10
2017-12-15T15:13:33.364Z,4.10
2017-12-15T15:16:01.813Z,4.10
2017-12-15T15:18:29.630Z,4.10
2017-12-15T15:20:57.263Z,4.10
2017-12-15T15:23:25.730Z,4.00
2017-12-15T15:25:53.331Z,4.00
2017-12-15T15:28:21.034Z,4.00
2017-12-15T15:30:48.711Z,3.90
2017-12-15T15:33:16.415Z,3.90
2017-12-15T15:35:44.100Z,3.90
2017-12-15T15:38:11.807Z,3.80
2017-12-15T15:40:40.387Z,3.70
2017-12-15T15:43:08.846Z,3.70
2017-12-15T15:45:37.384Z,3.70
2017-12-15T15:48:05.115Z,3.70
2017-12-15T15:50:33.190Z,3.70
2017-12-15T15:53:01.699Z,3.60
2017-12-15T15:55:29.376Z,3.60
2017-12-15T15:57:57.172Z,3.60
2017-12-15T16:00:24.863Z,3.50
2017-12-15T16:02:52.564Z,3.40
2017-12-15T16:05:20.252Z,3.40
2017-12-15T16:07:47.978Z,3.40
2017-12-15T16:10:15.760Z,3.50
2017-12-15T16:12:43.483Z,3.50
2017-12-15T16:15:11.155Z,3.50
2017-12-15T16:17:38.799Z,3.50
2017-12-15T16:20:06.512Z,3.50
2017-12-15T16:22:34.221Z,3.40
2017-12-15T16:25:01.919Z,3.40
2017-12-15T16:27:29.736Z,3.30
2017-12-15T16:29:58.175Z,3.20
2017-12-15T16:32:29.664Z,3.20
2017-12-15T16:34:58.120Z,3.30
2017-12-15T16:37:26.695Z,3.30
2017-12-15T16:39:54.355Z,3.20
2017-12-15T16:42:22.120Z,3.30
2017-12-15T16:44:49.845Z,3.30
2017-12-15T16:47:17.615Z,3.30
2017-12-15T16:49:45.396Z,3.40
2017-12-15T16:52:13.082Z,3.40
2017-12-15T16:54:42.528Z,3.40
2017-12-15T16:57:10.259Z,3.30
2017-12-15T16:59:38.938Z,3.50
2017-12-15T17:02:07.602Z,3.50
2017-12-15T17:04:36.163Z,3.50
2017-12-15T17:07:03.885Z,3.50
2017-12-15T17:09:31.648Z,3.60
2017-12-15T17:11:59.408Z,3.60
2017-12-15T17:14:27.228Z,3.60
2017-12-15T17:16:54.995Z,3.70
2017-12-15T17:19:22.768Z,3.70
2017-12-15T17:21:51.412Z,3.80
2017-12-15T17:24:19.147Z,3.80
2017-12-15T17:26:47.003Z,3.80
2017-12-15T17:29:14.680Z,3.90
2017-12-15T17:31:42.595Z,3.80
2017-12-15T17:34:10.369Z,3.80
2017-12-15T17:36:38.049Z,3.80
2017-12-15T17:39:05.739Z,3.70
2017-12-15T17:41:33.399Z,3.60
2017-12-15T17:44:01.251Z,3.50
2017-12-15T17:46:28.890Z,3.50
2017-12-15T17:48:56.556Z,3.40
2017-12-15T17:51:24.474Z,3.40
2017-12-15T17:53:52.444Z,3.30
2017-12-15T17:56:20.176Z,3.30
2017-12-15T17:58:48.617Z,3.30
2017-12-15T18:01:17.024Z,3.20
2017-12-15T18:03:44.811Z,3.20
2017-12-15T18:06:12.506Z,3.10
2017-12-15T18:08:41.166Z,3.10
2017-12-15T18:11:08.871Z,3.10
2017-12-15T18:13:36.611Z,3.00
2017-12-15T18:16:05.079Z,2.90
2017-12-15T18:18:32.759Z,2.90
2017-12-15T18:21:00.507Z,2.90
2017-12-15T18:23:28.183Z,2.80
2017-12-15T18:25:56.763Z,2.70
2017-12-15T18:28:25.234Z,2.70
2017-12-15T18:30:53.908Z,2.70
2017-12-15T18:33:22.822Z,2.70
2017-12-15T18:35:50.961Z,2.70
2017-12-15T18:38:19.027Z,2.60
2017-12-15T18:40:47.077Z,2.60
2017-12-15T18:43:14.816Z,2.50
2017-12-15T18:45:42.487Z,2.40
2017-12-15T18:48:10.168Z,2.30
2017-12-15T18:50:37.850Z,2.30
2017-12-15T18:53:05.502Z,2.30
2017-12-15T18:55:33.183Z,2.20
2017-12-15T18:58:02.209Z,2.30
2017-12-15T19:00:29.922Z,2.30
2017-12-15T19:02:57.789Z,2.20
2017-12-15T19:05:26.494Z,2.20
2017-12-15T19:07:54.242Z,2.20
2017-12-15T19:10:23.138Z,2.00
2017-12-15T19:12:51.165Z,2.00
2017-12-15T19:15:19.122Z,1.90
2017-12-15T19:17:46.912Z,1.80
2017-12-15T19:20:15.602Z,1.70
2017-12-15T19:22:43.449Z,1.70
2017-12-15T19:25:11.209Z,1.60
2017-12-15T19:27:39.072Z,1.50
2017-12-15T19:30:06.810Z,1.50
2017-12-15T19:32:34.507Z,1.40
2017-12-15T19:35:02.262Z,1.50
2017-12-15T19:37:29.998Z,1.40
2017-12-15T19:39:57.781Z,1.40
2017-12-15T19:42:25.675Z,1.40
2017-12-15T19:44:53.487Z,1.40
2017-12-15T19:47:21.307Z,1.40
2017-12-15T19:49:49.248Z,1.40
2017-12-15T19:52:17.153Z,1.40
2017-12-15T19:54:45.643Z,1.40
2017-12-15T19:57:13.592Z,1.40
2017-12-15T19:59:42.083Z,1.30
2017-12-15T20:02:10.631Z,1.20
2017-12-15T20:04:39.319Z,1.20
2017-12-15T20:07:07.180Z,1.20
2017-12-15T20:09:35.771Z,1.10
2017-12-15T20:12:03.746Z,1.10
2017-12-15T20:14:31.639Z,1.10
2017-12-15T20:16:59.533Z,1.10
2017-12-15T20:19:27.475Z,1.10
2017-12-15T20:21:55.352Z,1.10
2017-12-15T20:24:23.243Z,1.10
2017-12-15T20:26:51.133Z,1.10
2017-12-15T20:29:19.803Z,1.10
2017-12-15T20:31:47.782Z,1.10
2017-12-15T20:34:15.839Z,1.10
2017-12-15T20:36:43.761Z,1.10
2017-12-15T20:39:11.615Z,1.00
2017-12-15T20:41:39.564Z,1.00
2017-12-15T20:44:07.464Z,1.00
2017-12-15T20:46:35.387Z,1.00
2017-12-15T20:49:04.255Z,0.90
2017-12-15T20:51:32.214Z,0.80
2017-12-15T20:54:00.052Z,0.80
2017-12-15T20:56:27.987Z,0.80
2017-12-15T20:58:56.599Z,0.70
2017-12-15T21:01:24.368Z,0.70
2017-12-15T21:03:52.093Z,0.70
2017-12-15T21:06:20.556Z,0.60
2017-12-15T21:08:49.031Z,0.60
2017-12-15T21:11:17.546Z,0.60
2017-12-15T21:13:45.215Z,0.60
2017-12-15T21:16:12.927Z,0.70
2017-12-15T21:18:40.607Z,0.70
2017-12-15T21:21:09.076Z,0.70
2017-12-15T21:23:36.737Z,0.70
2017-12-15T21:26:04.511Z,0.70
2017-12-15T21:28:33.285Z,0.70
2017-12-15T21:31:01.394Z,0.70
2017-12-15T21:33:29.315Z,0.80
2017-12-15T21:35:57.132Z,0.90
2017-12-15T21:38:24.892Z,1.00
2017-12-15T21:40:52.789Z,1.10
2017-12-15T21:43:20.552Z,1.30
2017-12-15T21:45:48.300Z,1.40
2017-12-15T21:48:16.139Z,1.50
2017-12-15T21:50:46.622Z,1.60
2017-12-15T21:53:14.507Z,1.50
2017-12-15T21:55:43.090Z,1.70
2017-12-15T21:58:11.540Z,1.70
2017-12-15T22:00:39.315Z,1.60
2017-12-15T22:03:07.202Z,1.70
2017-12-15T22:05:35.054Z,1.70
2017-12-15T22:08:03.611Z,1.60
2017-12-15T22:10:31.504Z,1.60
2017-12-15T22:13:00.810Z,1.60
2017-12-15T22:15:28.606Z,1.60
2017-12-15T22:17:56.523Z,1.60
2017-12-15T22:20:24.532Z,1.60
2017-12-15T22:22:52.442Z,1.60
2017-12-15T22:25:20.290Z,1.60
2017-12-15T22:27:48.055Z,1.50
2017-12-15T22:30:15.902Z,1.50
2017-12-15T22:32:43.696Z,1.50
2017-12-15T22:35:11.386Z,1.50
2017-12-15T22:37:39.841Z,1.60
2017-12-15T22:40:08.398Z,1.50
2017-12-15T22:42:36.165Z,1.50
2017-12-15T22:45:05.516Z,1.50
2017-12-15T22:47:33.364Z,1.40
2017-12-15T22:50:02.116Z,1.40
2017-12-15T22:52:29.945Z,1.40
2017-12-15T22:54:57.851Z,1.30
2017-12-15T22:57:25.524Z,1.30
2017-12-15T22:59:53.168Z,1.20
2017-12-15T23:02:20.944Z,1.10
2017-12-15T23:04:48.691Z,1.00
2017-12-15T23:07:16.340Z,0.90
2017-12-15T23:09:44.094Z,0.90
2017-12-15T23:12:11.742Z,0.90
2017-12-15T23:14:39.471Z,1.00
2017-12-15T23:17:07.979Z,1.00
2017-12-15T23:19:36.534Z,1.00
2017-12-15T23:22:04.973Z,1.00
2017-12-15T23:24:33.409Z,1.00
2017-12-15T23:27:05.611Z,1.10
2017-12-15T23:29:35.596Z,1.10
2017-12-15T23:32:09.563Z,1.10
2017-12-15T23:34:40.297Z,1.20
2017-12-15T23:37:08.036Z,1.10
2017-12-15T23:39:35.735Z,1.20
2017-12-15T23:42:04.332Z,1.20
2017-12-15T23:44:32.051Z,1.20
2017-12-15T23:46:59.809Z,1.30
2017-12-15T23:49:27.564Z,1.30
2017-12-15T23:51:55.287Z,1.30
2017-12-15T23:54:34.694Z,1.30
2017-12-15T23:57:03.151Z,1.30
2017-12-15T23:59:30.827Z,1.30
